首页
METAR-TAF:

METAR-TAF

机场 :

重庆江北国际机场

重庆, 中华人民共和国

纬度: 29-31N, 经度: 106-29E, 海拔: 351米

当前天气观测

该预报发布于30分钟前的00:00 UTC
风速2节,风向多变
温度 15°C
湿度 72%
气压 1007 hPa
能见度10公里或以上
1500米以下无云,无积雨云

METAR: ZUCK 190000Z VRB01MPS CAVOK 15/10 Q1007 NOSIG

时间: 08:30 (00:30 UTC)

预报

该预报发布于5小时和20分钟前的19:10 UTC
预报有效从19日的 00点(UTC)到 19日的 24点(UTC)
风速6节,风向
能見度: 6000
散云层高于4000英尺
短暂存在
从 19日的 13点(UTC)到 19日的 19点(UTC)
少量云层高于1000英尺
少量云层高于3000英尺, 积雨云.
阴天层高于5000英尺
雷暴, 雨

TAF: ZUCK 181910Z 1900/1924 01003MPS 6000 SCT040 TX20/1907Z TN14/1922Z TEMPO 1913/1919 TSRA FEW010 FEW030CB OVC050

超过4000个机场的气象观测和天气预报(METAR&TAF报告)。

可查询的气象台以黄色和红色小点在地图上表示。

将鼠标移到小点上方,可查看气象台名称。

然后点击查看天气观测和预报。

如需切换地图:点击带黑十字的绿色按钮放大地图;点击带横线的绿色按钮缩小地图;或者点击绿色箭头查看邻近地区的地图。


METAR-TAF: